createdAt,value
2018-09-12T00:02:05.624Z,101466.44
2018-09-12T00:04:33.364Z,101464.83
2018-09-12T00:07:02.262Z,101459.55
2018-09-12T00:09:30.009Z,101461.27
2018-09-12T00:11:58.344Z,101459.45
2018-09-12T00:14:27.248Z,101472.36
2018-09-12T00:16:54.982Z,101460.86
2018-09-12T00:19:24.799Z,101452.61
2018-09-12T00:21:52.536Z,101453.69
2018-09-12T00:24:21.430Z,101448.44
2018-09-12T00:26:49.169Z,101449.48
2018-09-12T00:29:18.088Z,101447.91
2018-09-12T00:31:45.818Z,101456.08
2018-09-12T00:34:14.736Z,101449.61
2018-09-12T00:36:43.042Z,101458.56
2018-09-12T00:39:10.785Z,101459.81
2018-09-12T00:41:39.685Z,101457.58
2018-09-12T00:44:07.554Z,101460.89
2018-09-12T00:46:36.411Z,101463.32
2018-09-12T00:49:04.158Z,101455.20
2018-09-12T00:51:33.071Z,101458.66
2018-09-12T00:54:01.415Z,101461.59
2018-09-12T00:56:29.754Z,101469.33
2018-09-12T00:58:57.489Z,101466.63
2018-09-12T01:01:25.812Z,101464.19
2018-09-12T01:03:54.168Z,101465.91
2018-09-12T01:06:23.108Z,101461.92
2018-09-12T01:08:50.855Z,101473.66
2018-09-12T01:11:19.758Z,101465.39
2018-09-12T01:13:47.493Z,101463.47
2018-09-12T01:16:16.419Z,101461.45
2018-09-12T01:18:44.717Z,101461.64
2018-09-12T01:21:12.454Z,101468.45
2018-09-12T01:23:40.793Z,101460.69
2018-09-12T01:26:09.690Z,101449.15
2018-09-12T01:28:38.829Z,101454.55
2018-09-12T01:31:07.159Z,101462.38
2018-09-12T01:33:35.479Z,101467.47
2018-09-12T01:36:03.803Z,101458.22
2018-09-12T01:38:32.135Z,101466.97
2018-09-12T01:41:00.465Z,101463.52
2018-09-12T01:43:28.775Z,101471.29
2018-09-12T01:45:57.371Z,101461.70
2018-09-12T01:48:25.470Z,101462.25
2018-09-12T01:50:53.230Z,101464.63
2018-09-12T01:53:22.361Z,101464.67
2018-09-12T01:55:50.453Z,101460.76
2018-09-12T01:58:18.205Z,101463.84
2018-09-12T02:00:47.105Z,101460.67
2018-09-12T02:03:15.445Z,101466.77
2018-09-12T02:05:43.761Z,101474.81
2018-09-12T02:08:12.077Z,101468.22
2018-09-12T02:10:40.395Z,101461.34
2018-09-12T02:13:08.150Z,101462.05
2018-09-12T02:15:37.051Z,101463.30
2018-09-12T02:18:04.791Z,101454.23
2018-09-12T02:20:33.108Z,101460.70
2018-09-12T02:23:02.013Z,101457.45
2018-09-12T02:25:30.328Z,101464.06
2018-09-12T02:27:58.641Z,101462.31
2018-09-12T02:30:26.968Z,101464.11
2018-09-12T02:32:55.298Z,101473.41
2018-09-12T02:35:23.611Z,101471.02
2018-09-12T02:37:51.932Z,101468.52
2018-09-12T02:40:19.671Z,101474.27
2018-09-12T02:42:47.999Z,101482.62
2018-09-12T02:45:16.322Z,101484.25
2018-09-12T02:47:45.293Z,101490.47
2018-09-12T02:50:13.029Z,101484.62
2018-09-12T02:52:41.370Z,101489.91
2018-09-12T02:55:09.665Z,101482.84
2018-09-12T02:57:38.562Z,101488.05
2018-09-12T03:00:06.887Z,101481.56
2018-09-12T03:02:34.632Z,101487.97
2018-09-12T03:05:02.958Z,101492.58
2018-09-12T03:07:31.282Z,101488.05
2018-09-12T03:10:00.179Z,101490.67
2018-09-12T03:12:27.918Z,101490.53
2018-09-12T03:14:56.814Z,101491.06
2018-09-12T03:17:25.140Z,101478.00
2018-09-12T03:19:52.875Z,101469.39
2018-09-12T03:22:21.777Z,101470.94
2018-09-12T03:24:49.526Z,101474.58
2018-09-12T03:27:18.421Z,101475.66
2018-09-12T03:29:46.172Z,101478.42
2018-09-12T03:32:15.074Z,101474.23
2018-09-12T03:34:43.421Z,101467.55
2018-09-12T03:37:11.160Z,101471.28
2018-09-12T03:39:40.078Z,101472.06
2018-09-12T03:42:08.395Z,101468.73
2018-09-12T03:44:36.710Z,101472.67
2018-09-12T03:47:05.027Z,101474.47
2018-09-12T03:49:32.804Z,101473.69
2018-09-12T03:52:01.717Z,101470.94
2018-09-12T03:54:30.038Z,101465.38
2018-09-12T03:56:57.784Z,101467.76
2018-09-12T03:59:26.114Z,101467.39
2018-09-12T04:01:55.015Z,101454.42
2018-09-12T04:04:23.344Z,101455.59
2018-09-12T04:06:51.078Z,101454.37
2018-09-12T04:09:19.978Z,101454.09
2018-09-12T04:11:47.732Z,101442.38
2018-09-12T04:14:16.063Z,101448.02
2018-09-12T04:16:44.419Z,101450.03
2018-09-12T04:19:12.705Z,101449.30
2018-09-12T04:21:41.849Z,101451.48
2018-09-12T04:24:09.363Z,101454.92
2018-09-12T04:26:37.666Z,101464.03
2018-09-12T04:29:06.564Z,101468.20
2018-09-12T04:31:34.889Z,101464.58
2018-09-12T04:34:03.201Z,101461.29
2018-09-12T04:36:30.944Z,101458.89
2018-09-12T04:38:59.840Z,101458.75
2018-09-12T04:41:28.170Z,101459.19
2018-09-12T04:43:55.919Z,101459.00
2018-09-12T04:46:24.835Z,101456.27
2018-09-12T04:48:53.155Z,101451.48
2018-09-12T04:51:21.528Z,101450.47
2018-09-12T04:53:49.829Z,101456.02
2018-09-12T04:56:18.181Z,101457.20
2018-09-12T04:58:46.999Z,101455.61
2018-09-12T05:01:14.737Z,101454.14
2018-09-12T05:03:43.646Z,101451.17
2018-09-12T05:06:11.385Z,101443.98
2018-09-12T05:08:40.280Z,101440.14
2018-09-12T05:11:08.040Z,101433.31
2018-09-12T05:13:36.957Z,101440.92
2018-09-12T05:16:05.328Z,101436.64
2018-09-12T05:18:33.638Z,101436.54
2018-09-12T05:21:01.375Z,101428.02
2018-09-12T05:23:29.709Z,101428.49
2018-09-12T05:25:58.613Z,101425.27
2018-09-12T05:28:26.977Z,101432.16
2018-09-12T05:30:55.754Z,101436.34
2018-09-12T05:33:24.567Z,101426.59
2018-09-12T05:35:52.896Z,101430.65
2018-09-12T05:38:21.221Z,101425.45
2018-09-12T05:40:49.539Z,101417.57
2018-09-12T05:43:17.865Z,101416.92
2018-09-12T05:45:46.204Z,101420.52
2018-09-12T05:48:13.957Z,101411.75
2018-09-12T05:50:42.278Z,101423.03
2018-09-12T05:53:11.144Z,101419.97
2018-09-12T05:55:38.995Z,101415.52
2018-09-12T05:58:07.905Z,101415.64
2018-09-12T06:00:36.237Z,101415.25
2018-09-12T06:03:04.565Z,101402.25
2018-09-12T06:05:32.325Z,101405.86
2018-09-12T06:08:00.666Z,101404.41
2018-09-12T06:10:29.007Z,101408.25
2018-09-12T06:12:57.917Z,101406.10
2018-09-12T06:15:26.291Z,101407.63
2018-09-12T06:17:54.633Z,101416.75
2018-09-12T06:20:22.393Z,101410.44
2018-09-12T06:22:51.540Z,101402.00
2018-09-12T06:25:19.069Z,101405.11
2018-09-12T06:27:47.410Z,101407.88
2018-09-12T06:30:16.329Z,101404.27
2018-09-12T06:32:44.664Z,101410.27
2018-09-12T06:35:13.032Z,101408.71
2018-09-12T06:37:41.379Z,101389.61
2018-09-12T06:40:09.707Z,101384.14
2018-09-12T06:42:38.041Z,101382.07
2018-09-12T06:45:05.809Z,101393.13
2018-09-12T06:47:34.147Z,101385.33
2018-09-12T06:50:03.059Z,101391.26
2018-09-12T06:52:31.385Z,101399.70
2018-09-12T06:54:59.735Z,101404.41
2018-09-12T06:57:28.701Z,101390.86
2018-09-12T06:59:56.471Z,101397.53
2018-09-12T07:02:24.811Z,101396.80
2018-09-12T07:04:53.153Z,101410.33
2018-09-12T07:07:20.897Z,101399.97
2018-09-12T07:09:49.850Z,101398.80
2018-09-12T07:12:18.192Z,101409.39
2018-09-12T07:14:46.510Z,101411.11
2018-09-12T07:17:14.852Z,101408.70
2018-09-12T07:19:43.198Z,101410.45
2018-09-12T07:22:11.818Z,101412.64
2018-09-12T07:24:39.913Z,101409.59
2018-09-12T07:27:08.240Z,101409.19
2018-09-12T07:29:35.993Z,101417.67
2018-09-12T07:32:04.892Z,101430.27
2018-09-12T07:34:33.217Z,101413.55
2018-09-12T07:37:01.535Z,101409.02
2018-09-12T07:39:30.069Z,101415.70
2018-09-12T07:44:52.964Z,101418.83
2018-09-12T07:47:38.115Z,101407.33
2018-09-12T07:49:58.757Z,101412.84
2018-09-12T07:52:27.137Z,101424.63
2018-09-12T07:54:55.879Z,101414.78
2018-09-12T07:57:23.623Z,101432.64
2018-09-12T07:59:52.607Z,101415.84
2018-09-12T08:02:21.015Z,101416.14
2018-09-12T08:04:49.397Z,101432.94
2018-09-12T08:07:17.725Z,101451.39
2018-09-12T08:09:45.482Z,101430.35
2018-09-12T08:12:14.439Z,101429.95
2018-09-12T08:14:44.172Z,101437.30
2018-09-12T08:17:11.300Z,101424.59
2018-09-12T08:19:40.942Z,101424.63
2018-09-12T08:22:08.232Z,101431.45
2018-09-12T08:24:36.374Z,101444.97
2018-09-12T08:27:04.763Z,101438.25
2018-09-12T08:29:33.109Z,101431.83
2018-09-12T08:32:01.486Z,101436.91
2018-09-12T08:34:29.831Z,101454.63
2018-09-12T08:36:58.186Z,101450.16
2018-09-12T08:39:26.520Z,101452.45
2018-09-12T08:41:54.963Z,101447.02
2018-09-12T08:44:23.274Z,101440.37
2018-09-12T08:46:51.033Z,101441.89
2018-09-12T08:49:19.998Z,101453.15
2018-09-12T08:51:48.339Z,101444.38
2018-09-12T08:54:16.693Z,101455.41
2018-09-12T08:56:45.122Z,101449.92
2018-09-12T08:59:12.849Z,101445.19
2018-09-12T09:01:42.399Z,101452.73
2018-09-12T09:04:13.943Z,101456.61
2018-09-12T09:06:41.793Z,101454.90
2018-09-12T09:09:10.722Z,101449.22
2018-09-12T09:11:39.107Z,101459.10
2018-09-12T09:14:07.448Z,101460.13
2018-09-12T09:16:35.777Z,101459.33
2018-09-12T09:19:04.117Z,101460.27
2018-09-12T09:21:32.457Z,101464.50
2018-09-12T09:24:00.762Z,101459.95
2018-09-12T09:26:29.139Z,101461.20
2018-09-12T09:28:56.873Z,101462.24
2018-09-12T09:31:25.777Z,101468.02
2018-09-12T09:33:54.135Z,101473.30
2018-09-12T09:36:22.521Z,101466.97
2018-09-12T09:38:50.946Z,101475.77
2018-09-12T09:41:19.252Z,101468.80
2018-09-12T09:43:47.582Z,101477.27
2018-09-12T09:46:15.921Z,101467.50
2018-09-12T09:48:44.270Z,101482.14
2018-09-12T09:51:12.582Z,101469.56
2018-09-12T09:53:40.900Z,101487.75
2018-09-12T09:56:09.354Z,101486.25
2018-09-12T09:58:37.727Z,101493.83
2018-09-12T10:01:05.466Z,101499.31
2018-09-12T10:03:34.411Z,101507.64
2018-09-12T10:06:02.338Z,101513.36
2018-09-12T10:08:31.083Z,101524.69
2018-09-12T10:11:00.038Z,101515.15
2018-09-12T10:13:28.380Z,101514.79
2018-09-12T10:15:56.688Z,101511.77
2018-09-12T10:18:25.011Z,101513.05
2018-09-12T10:20:53.425Z,101505.02
2018-09-12T10:23:21.785Z,101521.39
2018-09-12T10:25:50.160Z,101514.69
2018-09-12T10:28:18.501Z,101502.75
2018-09-12T10:30:46.341Z,101507.79
2018-09-12T10:33:15.161Z,101504.43
2018-09-12T10:35:42.904Z,101504.95
2018-09-12T10:38:11.820Z,101503.31
2018-09-12T10:40:40.191Z,101501.16
2018-09-12T10:43:07.948Z,101502.23
2018-09-12T10:45:36.796Z,101500.86
2018-09-12T10:48:05.320Z,101500.14
2018-09-12T10:50:33.639Z,101510.17
2018-09-12T10:53:01.980Z,101509.05
2018-09-12T10:55:29.730Z,101514.94
2018-09-12T10:57:58.634Z,101512.82
2018-09-12T11:00:26.857Z,101512.81
2018-09-12T11:02:55.669Z,101513.45
2018-09-12T11:05:24.006Z,101523.70
2018-09-12T11:07:52.322Z,101519.07
2018-09-12T11:10:20.716Z,101522.67
2018-09-12T11:12:49.056Z,101519.84
2018-09-12T11:15:17.410Z,101535.34
2018-09-12T11:17:45.711Z,101537.00
2018-09-12T11:20:14.061Z,101537.23
2018-09-12T11:22:42.383Z,101545.39
2018-09-12T11:25:10.706Z,101543.48
2018-09-12T11:27:39.073Z,101543.73
2018-09-12T11:30:07.401Z,101542.56
2018-09-12T11:32:35.740Z,101533.42
2018-09-12T11:35:04.087Z,101535.79
2018-09-12T11:37:46.158Z,101537.78
2018-09-12T11:40:14.071Z,101534.05
2018-09-12T11:42:42.332Z,101537.61
2018-09-12T11:45:11.272Z,101543.16
2018-09-12T11:47:39.650Z,101541.53
2018-09-12T11:50:08.060Z,101543.77
2018-09-12T11:52:36.343Z,101548.97
2018-09-12T11:55:04.928Z,101552.30
2018-09-12T11:57:33.014Z,101559.13
2018-09-12T12:00:01.358Z,101556.20
2018-09-12T12:02:29.700Z,101560.31
2018-09-12T12:04:58.368Z,101560.25
2018-09-12T12:07:27.314Z,101554.06
2018-09-12T12:09:55.884Z,101556.42
2018-09-12T12:12:24.334Z,101560.42
2018-09-12T12:14:53.676Z,101563.58
2018-09-12T12:17:21.492Z,101560.44
2018-09-12T12:19:50.586Z,101566.88
2018-09-12T12:22:18.684Z,101558.46
2018-09-12T12:24:46.436Z,101565.41
2018-09-12T12:27:14.758Z,101563.28
2018-09-12T12:29:43.070Z,101569.50
2018-09-12T12:32:11.968Z,101571.58
2018-09-12T12:34:40.297Z,101574.41
2018-09-12T12:37:08.038Z,101587.88
2018-09-12T12:39:36.940Z,101582.80
2018-09-12T12:42:05.262Z,101594.19
2018-09-12T12:44:33.586Z,101599.44
2018-09-12T12:47:01.325Z,101600.14
2018-09-12T12:49:30.241Z,101608.80
2018-09-12T12:51:57.977Z,101610.48
2018-09-12T12:54:26.285Z,101610.00
2018-09-12T12:56:54.617Z,101616.53
2018-09-12T12:59:23.297Z,101612.94
2018-09-12T13:01:51.614Z,101615.86
2018-09-12T13:04:20.025Z,101613.56
2018-09-12T13:06:48.291Z,101604.56
2018-09-12T13:09:17.202Z,101608.00
2018-09-12T13:11:44.939Z,101614.92
2018-09-12T13:14:13.849Z,101605.28
2018-09-12T13:16:42.179Z,101607.70
2018-09-12T13:19:10.562Z,101615.54
2018-09-12T13:21:39.091Z,101618.83
2018-09-12T13:24:06.645Z,101608.64
2018-09-12T13:26:35.579Z,101600.35
2018-09-12T13:29:03.983Z,101607.02
2018-09-12T13:31:32.307Z,101619.52
2018-09-12T13:34:00.147Z,101597.77
2018-09-12T13:36:29.079Z,101611.54
2018-09-12T13:38:57.435Z,101634.15
2018-09-12T13:41:25.921Z,101615.18
2018-09-12T13:43:54.272Z,101615.72
2018-09-12T13:46:22.618Z,101618.31
2018-09-12T13:48:50.945Z,101628.22
2018-09-12T13:51:19.300Z,101617.77
2018-09-12T13:53:47.651Z,101622.67
2018-09-12T13:56:16.193Z,101628.38
2018-09-12T13:58:44.535Z,101627.91
2018-09-12T14:01:12.646Z,101619.03
2018-09-12T14:03:40.385Z,101615.59
2018-09-12T14:06:09.427Z,101627.98
2018-09-12T14:11:30.529Z,101627.38
2018-09-12T14:13:58.899Z,101630.28
2018-09-12T14:16:27.258Z,101627.10
2018-09-12T14:18:55.590Z,101643.08
2018-09-12T14:21:24.137Z,101630.66
2018-09-12T14:23:53.062Z,101625.34
2018-09-12T14:26:22.291Z,101619.59
2018-09-12T14:28:51.717Z,101634.33
2018-09-12T14:31:19.612Z,101633.66
2018-09-12T14:33:48.418Z,101634.22
2018-09-12T14:36:16.755Z,101630.41
2018-09-12T14:38:45.117Z,101644.44
2018-09-12T14:41:22.520Z,101639.78
2018-09-12T14:43:50.856Z,101645.19
2018-09-12T14:46:19.182Z,101644.28
2018-09-12T14:48:47.522Z,101652.17
2018-09-12T14:51:15.844Z,101661.75
2018-09-12T14:53:44.180Z,101666.66
2018-09-12T14:56:12.514Z,101661.29
2018-09-12T14:58:40.857Z,101662.12
2018-09-12T15:01:09.190Z,101661.14
2018-09-12T15:03:37.521Z,101660.42
2018-09-12T15:06:05.871Z,101649.42
2018-09-12T15:08:33.628Z,101654.25
2018-09-12T15:11:02.533Z,101663.38
2018-09-12T15:13:30.869Z,101672.00
2018-09-12T15:15:59.209Z,101669.17
2018-09-12T15:18:27.538Z,101657.22
2018-09-12T15:20:55.902Z,101657.25
2018-09-12T15:23:23.640Z,101653.80
2018-09-12T15:25:52.568Z,101655.91
2018-09-12T15:28:20.905Z,101655.39
2018-09-12T15:30:48.646Z,101655.52
2018-09-12T15:33:17.153Z,101647.86
2018-09-12T15:35:45.362Z,101647.47
2018-09-12T15:38:13.701Z,101644.97
2018-09-12T15:40:42.053Z,101651.84
2018-09-12T15:43:10.976Z,101655.08
2018-09-12T15:45:39.316Z,101657.78
2018-09-12T15:48:07.659Z,101657.70
2018-09-12T15:50:36.005Z,101667.73
2018-09-12T15:53:05.060Z,101668.98
2018-09-12T15:55:32.700Z,101661.51
2018-09-12T15:58:00.510Z,101657.88
2018-09-12T16:00:29.434Z,101659.98
2018-09-12T16:02:57.793Z,101656.41
2018-09-12T16:05:26.131Z,101653.11
2018-09-12T16:07:55.171Z,101656.75
2018-09-12T16:10:23.797Z,101658.61
2018-09-12T16:12:52.351Z,101661.38
2018-09-12T16:15:20.552Z,101651.13
2018-09-12T16:17:48.217Z,101654.73
2018-09-12T16:20:17.144Z,101654.53
2018-09-12T16:22:45.500Z,101644.80
2018-09-12T16:25:13.256Z,101637.75
2018-09-12T16:27:41.642Z,101644.57
2018-09-12T16:30:10.558Z,101637.42
2018-09-12T16:32:39.445Z,101642.02
2018-09-12T16:35:07.697Z,101654.11
2018-09-12T16:37:36.041Z,101642.13
2018-09-12T16:40:04.390Z,101654.84
2018-09-12T16:42:32.100Z,101645.11
2018-09-12T16:45:01.038Z,101655.88
2018-09-12T16:47:29.361Z,101661.88
2018-09-12T16:49:57.110Z,101661.17
2018-09-12T16:52:26.042Z,101651.46
2018-09-12T16:54:54.374Z,101657.61
2018-09-12T16:57:22.785Z,101656.57
2018-09-12T16:59:51.163Z,101656.84
2018-09-12T17:02:19.505Z,101656.55
2018-09-12T17:04:47.879Z,101663.13
2018-09-12T17:07:16.241Z,101671.36
2018-09-12T17:09:44.014Z,101656.67
2018-09-12T17:12:13.160Z,101659.08
2018-09-12T17:14:41.737Z,101659.17
2018-09-12T17:17:10.925Z,101658.27
2018-09-12T17:19:39.739Z,101654.52
2018-09-12T17:31:01.184Z,101667.47
2018-09-12T17:33:28.949Z,101672.05
2018-09-12T17:35:57.868Z,101675.62
2018-09-12T17:38:26.203Z,101671.36
2018-09-12T17:40:54.542Z,101674.37
2018-09-12T17:43:22.875Z,101676.81
2018-09-12T17:45:50.628Z,101684.02
2018-09-12T17:48:19.930Z,101694.58
2018-09-12T17:50:51.774Z,101695.22
2018-09-12T17:53:19.820Z,101702.28
2018-09-12T17:55:48.221Z,101696.98
2018-09-12T17:58:16.508Z,101694.27
2018-09-12T18:00:44.857Z,101700.43
2018-09-12T18:03:13.383Z,101706.44
2018-09-12T18:08:15.827Z,101711.13
2018-09-12T18:10:45.936Z,101712.88
2018-09-12T18:18:51.798Z,101710.14
2018-09-12T18:21:20.856Z,101710.69
2018-09-12T18:23:52.303Z,101716.23
2018-09-12T18:26:23.265Z,101711.40
2018-09-12T18:28:52.410Z,101706.66
2018-09-12T18:31:22.569Z,101707.13
2018-09-12T18:37:03.107Z,101708.18
2018-09-12T18:45:24.413Z,101710.45
2018-09-12T18:47:52.983Z,101705.64
2018-09-12T18:50:20.516Z,101711.73
2018-09-12T18:52:49.436Z,101707.68
2018-09-12T18:55:17.782Z,101703.80
2018-09-12T18:57:45.542Z,101711.37
2018-09-12T19:00:15.441Z,101718.88
2018-09-12T19:02:43.779Z,101726.27
2018-09-12T19:05:12.105Z,101729.02
2018-09-12T19:07:39.921Z,101726.76
2018-09-12T19:10:09.099Z,101734.09
2018-09-12T19:12:37.240Z,101732.59
2018-09-12T19:15:05.589Z,101734.41
2018-09-12T19:17:33.955Z,101727.23
2018-09-12T19:20:02.576Z,101740.88
2018-09-12T19:22:30.855Z,101740.95
2018-09-12T19:24:59.283Z,101743.87
2018-09-12T19:27:27.583Z,101734.27
2018-09-12T19:29:55.971Z,101734.38
2018-09-12T19:32:24.752Z,101739.03
2018-09-12T19:34:52.961Z,101744.16
2018-09-12T19:37:21.892Z,101748.81
2018-09-12T19:39:50.268Z,101738.89
2018-09-12T19:42:22.372Z,101734.67
2018-09-12T19:44:50.689Z,101735.27
2018-09-12T19:47:19.772Z,101747.59
2018-09-12T19:49:47.518Z,101750.95
2018-09-12T19:52:15.927Z,101743.62
2018-09-12T19:54:43.776Z,101753.64
2018-09-12T19:57:12.893Z,101758.15
2018-09-12T19:59:41.368Z,101768.25
2018-09-12T20:02:09.789Z,101766.98
2018-09-12T20:04:38.134Z,101766.72
2018-09-12T20:07:06.614Z,101773.82
2018-09-12T20:09:34.914Z,101767.61
2018-09-12T20:12:02.750Z,101765.14
2018-09-12T20:14:33.590Z,101769.67
2018-09-12T20:17:01.930Z,101775.05
2018-09-12T20:19:30.490Z,101778.16
2018-09-12T20:21:58.648Z,101774.69
2018-09-12T20:24:26.482Z,101771.69
2018-09-12T20:26:55.378Z,101770.59
2018-09-12T20:29:23.756Z,101777.25
2018-09-12T20:31:52.219Z,101773.46
2018-09-12T20:34:21.241Z,101778.18
2018-09-12T20:36:49.270Z,101765.54
2018-09-12T20:39:17.603Z,101772.95
2018-09-12T20:41:45.957Z,101777.05
2018-09-12T20:44:14.317Z,101778.50
2018-09-12T20:46:42.682Z,101784.17
2018-09-12T20:49:11.030Z,101793.89
2018-09-12T20:51:39.370Z,101794.66
2018-09-12T20:54:07.956Z,101792.64
2018-09-12T20:56:35.481Z,101791.87
2018-09-12T20:59:04.406Z,101784.48
2018-09-12T21:01:32.176Z,101777.27
2018-09-12T21:04:01.097Z,101778.84
2018-09-12T21:06:29.430Z,101784.98
2018-09-12T21:08:57.173Z,101791.50
2018-09-12T21:11:26.094Z,101788.30
2018-09-12T21:13:54.443Z,101793.75
2018-09-12T21:16:22.194Z,101793.97
2018-09-12T21:18:51.104Z,101796.60
2018-09-12T21:21:19.417Z,101797.61
2018-09-12T21:23:47.734Z,101797.28
2018-09-12T21:26:15.506Z,101802.98
2018-09-12T21:28:43.824Z,101806.29
2018-09-12T21:31:12.728Z,101808.73
2018-09-12T21:33:42.066Z,101815.48
2018-09-12T21:36:08.965Z,101815.52
2018-09-12T21:38:37.304Z,101815.75
2018-09-12T21:41:06.203Z,101821.16
2018-09-12T21:43:34.523Z,101811.20
2018-09-12T21:46:02.843Z,101818.06
2018-09-12T21:48:30.582Z,101819.67
2018-09-12T21:50:59.481Z,101818.28
2018-09-12T21:53:27.398Z,101818.62
2018-09-12T21:55:56.139Z,101821.95
2018-09-12T21:58:23.889Z,101829.05
2018-09-12T22:00:52.813Z,101827.88
2018-09-12T22:03:21.129Z,101822.14
2018-09-12T22:05:49.461Z,101821.27
2018-09-12T22:08:17.769Z,101819.39
2018-09-12T22:10:46.114Z,101827.16
2018-09-12T22:13:13.881Z,101823.39
2018-09-12T22:15:42.774Z,101816.22
2018-09-12T22:18:11.095Z,101823.30
2018-09-12T22:20:39.417Z,101822.81
2018-09-12T22:23:07.166Z,101828.02
2018-09-12T22:25:36.076Z,101826.97
2018-09-12T22:28:04.387Z,101833.54
2018-09-12T22:30:32.124Z,101832.52
2018-09-12T22:33:01.029Z,101826.20
2018-09-12T22:35:29.347Z,101822.84
2018-09-12T22:37:57.085Z,101816.02
2018-09-12T22:40:25.410Z,101811.45
2018-09-12T22:42:54.317Z,101812.64
2018-09-12T22:45:22.644Z,101817.48
2018-09-12T22:47:50.973Z,101813.90
2018-09-12T22:50:18.726Z,101810.34
2018-09-12T22:52:47.643Z,101805.40
2018-09-12T22:55:15.384Z,101804.62
2018-09-12T22:57:44.281Z,101807.77
2018-09-12T23:00:12.609Z,101804.13
2018-09-12T23:02:40.357Z,101808.80
2018-09-12T23:05:09.256Z,101809.56
2018-09-12T23:07:37.007Z,101817.20
2018-09-12T23:10:05.902Z,101816.59
2018-09-12T23:12:33.655Z,101818.20
2018-09-12T23:15:02.555Z,101824.16
2018-09-12T23:17:30.292Z,101831.89
2018-09-12T23:19:58.624Z,101831.78
2018-09-12T23:22:27.516Z,101824.78
2018-09-12T23:24:55.834Z,101822.91
2018-09-12T23:27:24.151Z,101821.75
2018-09-12T23:29:51.889Z,101818.41
2018-09-12T23:32:20.208Z,101820.84
2018-09-12T23:34:49.120Z,101823.16
2018-09-12T23:37:16.859Z,101832.00
2018-09-12T23:39:45.184Z,101839.14
2018-09-12T23:42:14.087Z,101838.70
2018-09-12T23:44:41.830Z,101832.66
2018-09-12T23:47:10.732Z,101832.50
2018-09-12T23:49:39.055Z,101833.83
2018-09-12T23:52:07.367Z,101836.46
2018-09-12T23:54:35.700Z,101837.48
2018-09-12T23:57:03.441Z,101833.91
2018-09-12T23:59:32.346Z,101835.80
